Time;durP1;ratioP1;P1;durP2;ratioP2;P2;SDS_P1;SDS_P2;PMS_P1;PMS_P2;Temp;Humidity;BMP_temperature;BMP_pressure;BME280_temperature;BME280_humidity;BME280_pressure;Samples;Min_cycle;Max_cycle;Signal;HPM_P1;HPM_P2
2022/03/08 00:01:38;;;;;;;0.08;0.08;;;;;;;14.73;26.87;102419.47;10493094;28;20051;-77
2022/03/08 00:06:41;;;;;;;0.00;0.00;;;;;;;15.64;25.73;102404.09;10472186;28;20050;-78
2022/03/08 00:11:42;;;;;;;0.00;0.00;;;;;;;15.47;25.60;102406.19;10481856;28;20143;-77
2022/03/08 00:16:44;;;;;;;0.00;0.00;;;;;;;15.11;26.58;102412.03;10507418;28;20040;-78
2022/03/08 00:21:46;;;;;;;0.38;0.38;;;;;;;14.68;27.24;102401.16;10504436;28;20040;-78
2022/03/08 00:26:47;;;;;;;0.00;0.00;;;;;;;14.95;27.07;102400.28;10487474;28;20033;-77
2022/03/08 00:31:49;;;;;;;0.47;0.22;;;;;;;15.17;26.32;102396.63;10482957;28;20056;-78
2022/03/08 00:36:51;;;;;;;0.08;0.08;;;;;;;16.18;25.22;102378.72;10493804;28;20071;-78
2022/03/08 00:41:52;;;;;;;0.00;0.00;;;;;;;14.83;26.35;102377.44;10490734;28;20083;-77
2022/03/08 00:46:54;;;;;;;4.45;0.57;;;;;;;14.33;27.60;102366.25;10486563;28;20127;-78
2022/03/08 00:51:56;;;;;;;0.00;0.00;;;;;;;14.31;27.90;102365.31;10481753;28;20040;-77
2022/03/08 00:56:57;;;;;;;0.30;0.30;;;;;;;14.77;26.68;102356.47;10469640;28;20036;-78
2022/03/08 01:01:59;;;;;;;0.55;0.52;;;;;;;14.35;27.45;102359.38;10511288;28;20515;-78
2022/03/08 01:07:01;;;;;;;0.00;0.00;;;;;;;15.25;25.60;102352.75;10490341;28;20102;-78
2022/03/08 01:12:03;;;;;;;0.20;0.20;;;;;;;15.61;24.85;102349.47;10495055;28;20068;-77
2022/03/08 01:17:05;;;;;;;0.00;0.00;;;;;;;14.88;25.47;102346.44;10489803;28;20041;-78
2022/03/08 01:22:07;;;;;;;0.00;0.00;;;;;;;15.05;25.54;102340.03;10488315;28;20067;-78
2022/03/08 01:27:09;;;;;;;0.00;0.00;;;;;;;15.42;25.48;102335.06;10486694;28;20049;-78
2022/03/08 01:32:10;;;;;;;0.00;0.00;;;;;;;14.90;25.49;102332.69;10497876;28;20415;-77
2022/03/08 01:37:12;;;;;;;0.00;0.00;;;;;;;15.66;24.99;102329.66;10495066;28;20052;-76
2022/03/08 01:42:21;;;;;;;0.32;0.32;;;;;;;14.58;26.41;102329.91;10480378;28;20052;-78
2022/03/08 01:47:25;;;;;;;0.00;0.00;;;;;;;15.27;25.54;102311.25;10501689;28;20064;-78
2022/03/08 01:52:28;;;;;;;0.00;0.00;;;;;;;15.71;24.63;102311.63;10490399;28;20049;-77
2022/03/08 01:57:30;;;;;;;0.00;0.00;;;;;;;16.43;23.77;102311.75;10490692;28;20624;-77
2022/03/08 02:02:35;;;;;;;0.00;0.00;;;;;;;15.18;24.98;102304.94;10497966;28;20569;-78
2022/03/08 02:07:37;;;;;;;0.00;0.00;;;;;;;15.68;24.42;102306.31;10509842;28;20033;-77
2022/03/08 02:12:39;;;;;;;0.00;0.00;;;;;;;16.12;23.81;102301.44;10495428;28;20479;-77
2022/03/08 02:17:40;;;;;;;0.00;0.00;;;;;;;16.99;22.59;102293.09;10497305;28;20041;-77
2022/03/08 02:22:43;;;;;;;0.00;0.00;;;;;;;15.63;24.13;102292.34;10496936;28;20068;-78
2022/03/08 02:27:49;;;;;;;0.00;0.00;;;;;;;15.03;24.63;102294.09;10504763;28;20487;-77
2022/03/08 02:32:52;;;;;;;0.00;0.00;;;;;;;13.98;27.14;102307.19;10497584;28;20867;-77
2022/03/08 02:38:05;;;;;;;0.00;0.00;;;;;;;14.97;25.14;102301.72;10495432;28;20123;-77
2022/03/08 02:43:08;;;;;;;0.00;0.00;;;;;;;15.43;24.54;102300.47;10489356;28;20127;-77
2022/03/08 02:48:12;;;;;;;0.00;0.00;;;;;;;13.53;26.91;102297.84;10510262;28;20504;-77
2022/03/08 02:53:13;;;;;;;0.00;0.00;;;;;;;14.57;25.19;102290.97;10490794;28;20411;-77
2022/03/08 02:58:15;;;;;;;0.00;0.00;;;;;;;14.51;24.96;102283.88;10493878;28;20170;-77
2022/03/08 03:03:17;;;;;;;0.00;0.00;;;;;;;14.38;25.46;102277.41;10492909;28;20048;-76
2022/03/08 03:08:19;;;;;;;0.20;0.20;;;;;;;14.60;25.40;102284.16;10496565;28;20403;-77
2022/03/08 03:13:20;;;;;;;0.00;0.00;;;;;;;14.54;25.59;102276.19;10496087;28;20060;-76
2022/03/08 03:18:22;;;;;;;0.00;0.00;;;;;;;14.24;25.95;102269.19;10513288;28;20040;-76
2022/03/08 03:23:23;;;;;;;0.10;0.10;;;;;;;13.00;26.78;102274.31;10494653;28;20075;-77
2022/03/08 03:28:25;;;;;;;0.08;0.08;;;;;;;13.11;26.78;102267.81;10488622;28;20052;-76
2022/03/08 03:33:26;;;;;;;0.00;0.00;;;;;;;12.87;26.92;102262.59;10497471;28;20044;-75
2022/03/08 03:38:28;;;;;;;0.00;0.00;;;;;;;14.46;25.78;102259.50;10479570;28;20132;-76
2022/03/08 03:43:30;;;;;;;1.85;1.75;;;;;;;13.88;25.30;102264.56;10496517;28;20110;-79
2022/03/08 03:48:32;;;;;;;0.00;0.00;;;;;;;13.87;25.83;102267.97;10489350;28;20086;-76
2022/03/08 03:53:33;;;;;;;0.00;0.00;;;;;;;13.76;25.64;102256.34;10487462;28;20518;-77
2022/03/08 03:58:36;;;;;;;0.10;0.10;;;;;;;12.87;27.03;102260.03;10495039;28;20076;-77
2022/03/08 04:03:38;;;;;;;0.00;0.00;;;;;;;13.74;25.86;102263.16;10493771;28;20046;-77
2022/03/08 04:08:39;;;;;;;0.00;0.00;;;;;;;13.76;25.91;102252.06;10495605;28;20087;-76
2022/03/08 04:13:44;;;;;;;0.05;0.05;;;;;;;14.43;24.71;102254.22;10500325;28;20036;-76
2022/03/08 04:18:45;;;;;;;0.03;0.03;;;;;;;13.76;25.37;102248.56;10494384;28;20056;-78
2022/03/08 04:23:47;;;;;;;0.00;0.00;;;;;;;13.68;25.65;102257.78;10495522;28;20052;-78
2022/03/08 04:28:49;;;;;;;0.10;0.10;;;;;;;14.34;24.90;102243.53;10498298;28;20068;-76
2022/03/08 04:33:50;;;;;;;0.00;0.00;;;;;;;14.19;25.20;102239.63;10505966;28;20049;-77
2022/03/08 04:38:52;;;;;;;0.98;0.45;;;;;;;12.94;26.43;102237.88;10496842;28;20082;-76
2022/03/08 04:43:54;;;;;;;0.00;0.00;;;;;;;14.59;24.83;102245.22;10495422;28;20400;-77
2022/03/08 04:48:55;;;;;;;0.05;0.05;;;;;;;13.20;26.33;102246.59;10527218;28;20059;-77
2022/03/08 04:53:57;;;;;;;0.35;0.35;;;;;;;12.62;27.02;102255.59;10494191;28;20086;-77
2022/03/08 04:58:59;;;;;;;0.20;0.20;;;;;;;12.77;26.96;102245.00;10495923;28;20040;-77
2022/03/08 05:04:00;;;;;;;0.98;0.52;;;;;;;12.54;27.09;102247.56;10488389;28;20546;-78
2022/03/08 05:09:03;;;;;;;0.20;0.20;;;;;;;13.45;25.97;102239.72;10498517;28;20036;-76
2022/03/08 05:14:05;;;;;;;8.00;4.50;;;;;;;13.42;26.08;102239.63;10495146;28;20518;-77
2022/03/08 05:19:07;;;;;;;0.00;0.00;;;;;;;12.89;26.92;102240.28;10493231;28;20487;-77
2022/03/08 05:24:09;;;;;;;0.10;0.10;;;;;;;13.77;25.48;102233.09;10495068;28;20045;-76
2022/03/08 05:29:10;;;;;;;0.00;0.00;;;;;;;13.73;25.53;102232.94;10492822;28;20479;-76
2022/03/08 05:34:14;;;;;;;1.33;0.80;;;;;;;13.26;26.15;102231.28;10511268;28;20046;-76
2022/03/08 05:39:16;;;;;;;0.28;0.28;;;;;;;12.60;27.05;102232.28;10493854;28;20052;-76
2022/03/08 05:44:17;;;;;;;1.52;0.45;;;;;;;12.43;26.68;102234.22;10494656;28;20045;-77
2022/03/08 05:49:19;;;;;;;0.00;0.00;;;;;;;12.64;27.08;102234.16;10495984;28;20047;-77
2022/03/08 05:54:20;;;;;;;0.00;0.00;;;;;;;12.25;27.82;102239.50;10495496;28;20052;-77
2022/03/08 05:59:22;;;;;;;0.00;0.00;;;;;;;13.49;26.33;102232.13;10493907;28;20503;-77
2022/03/08 06:04:24;;;;;;;0.08;0.08;;;;;;;13.54;25.58;102234.88;10493765;28;20497;-77
2022/03/08 06:09:25;;;;;;;0.00;0.00;;;;;;;13.87;25.03;102233.38;10493863;28;20139;-77
2022/03/08 06:14:28;;;;;;;0.03;0.03;;;;;;;13.84;25.83;102225.53;10486595;28;20048;-77
2022/03/08 06:19:30;;;;;;;0.30;0.30;;;;;;;13.53;25.79;102235.69;10501710;28;20048;-76
2022/03/08 06:24:31;;;;;;;0.10;0.10;;;;;;;12.70;26.80;102242.16;10501428;28;20140;-77
2022/03/08 06:29:33;;;;;;;0.00;0.00;;;;;;;13.77;25.88;102238.28;10501222;28;20076;-76
2022/03/08 06:34:34;;;;;;;0.13;0.10;;;;;;;12.12;28.03;102247.56;10484076;28;20048;-77
2022/03/08 06:39:36;;;;;;;1.02;0.30;;;;;;;13.42;26.79;102242.22;10499843;28;20143;-77
2022/03/08 06:44:40;;;;;;;0.22;0.22;;;;;;;13.37;27.16;102251.47;10498073;28;20131;-76
2022/03/08 06:49:42;;;;;;;0.40;0.40;;;;;;;14.21;26.37;102245.75;10498547;28;20059;-81
2022/03/08 06:54:43;;;;;;;0.43;0.30;;;;;;;14.37;25.80;102248.84;10495539;28;20045;-82
2022/03/08 06:59:45;;;;;;;0.90;0.75;;;;;;;13.64;26.80;102255.09;10494904;28;20099;-82
2022/03/08 07:04:47;;;;;;;0.13;0.13;;;;;;;14.77;25.81;102244.94;10494188;28;20131;-82
2022/03/08 07:09:48;;;;;;;0.25;0.25;;;;;;;14.36;25.75;102244.47;10511355;28;20046;-82
2022/03/08 07:14:50;;;;;;;0.10;0.10;;;;;;;14.46;26.25;102241.34;10495165;28;20555;-82
2022/03/08 07:19:51;;;;;;;0.00;0.00;;;;;;;15.28;25.55;102243.78;10495213;28;20071;-82
2022/03/08 07:24:54;;;;;;;0.85;0.70;;;;;;;14.46;26.17;102259.50;10492982;28;20047;-83
2022/03/08 07:29:55;;;;;;;0.25;0.17;;;;;;;15.20;25.57;102248.78;10487970;28;20055;-82
2022/03/08 07:34:58;;;;;;;2.88;1.17;;;;;;;15.15;25.58;102252.06;10492494;28;20135;-83
2022/03/08 07:39:59;;;;;;;0.80;0.52;;;;;;;15.98;24.86;102248.22;10493138;28;20167;-83
2022/03/08 07:45:01;;;;;;;0.40;0.40;;;;;;;15.09;25.75;102257.94;10494190;28;20464;-83
2022/03/08 07:50:04;;;;;;;0.50;0.25;;;;;;;15.85;25.00;102258.31;10491937;28;20511;-83
2022/03/08 07:55:07;;;;;;;2.22;1.08;;;;;;;15.58;25.40;102267.97;10489619;28;20557;-83
2022/03/08 08:00:10;;;;;;;1.40;0.82;;;;;;;15.62;24.99;102267.19;10487599;28;20570;-83
2022/03/08 08:05:12;;;;;;;3.22;1.10;;;;;;;16.08;24.89;102260.63;10492349;28;20055;-83
2022/03/08 08:10:13;;;;;;;1.38;1.05;;;;;;;15.87;25.17;102258.34;10491556;28;20059;-83
2022/03/08 08:15:15;;;;;;;0.55;0.43;;;;;;;16.52;24.08;102257.34;10492501;28;20076;-84
2022/03/08 08:20:17;;;;;;;4.45;2.53;;;;;;;15.73;24.81;102278.78;10508641;28;20052;-83
2022/03/08 08:25:19;;;;;;;1.35;1.15;;;;;;;17.24;22.85;102272.75;10488649;28;20046;-85
2022/03/08 08:30:22;;;;;;;2.88;1.63;;;;;;;16.28;23.76;102279.31;10489433;28;20500;-84
2022/03/08 08:35:23;;;;;;;3.10;1.30;;;;;;;16.82;23.46;102253.66;10486426;28;20120;-83
2022/03/08 08:40:25;;;;;;;2.35;1.35;;;;;;;17.18;22.66;102244.88;10492987;28;20553;-82
2022/03/08 08:45:27;;;;;;;2.53;1.33;;;;;;;16.74;22.68;102243.06;10486969;28;20715;-82
2022/03/08 08:50:29;;;;;;;3.33;1.33;;;;;;;15.55;23.70;102251.44;10488907;28;20037;-84
2022/03/08 08:55:30;;;;;;;0.52;0.50;;;;;;;18.08;21.46;102226.53;10490203;28;20534;-83
2022/03/08 09:00:34;;;;;;;1.08;0.55;;;;;;;18.88;21.08;102236.34;10470412;28;20510;-85
2022/03/08 09:05:36;;;;;;;1.55;0.98;;;;;;;18.22;21.67;102228.47;10490417;28;20036;-84
2022/03/08 09:10:38;;;;;;;1.30;0.73;;;;;;;19.54;20.35;102222.28;10506576;28;20036;-84
2022/03/08 09:15:40;;;;;;;3.15;1.25;;;;;;;18.42;21.00;102226.16;10490428;28;20136;-84
2022/03/08 09:20:42;;;;;;;0.77;0.77;;;;;;;19.03;21.20;102210.44;10490558;28;20127;-85
2022/03/08 09:25:44;;;;;;;1.85;1.42;;;;;;;20.29;19.71;102207.22;10490146;28;20440;-84
2022/03/08 09:30:48;;;;;;;1.60;0.95;;;;;;;18.14;21.15;102204.00;10489467;28;20140;-85
2022/03/08 09:35:49;;;;;;;2.08;1.30;;;;;;;18.94;20.41;102194.69;10489981;28;20056;-86
2022/03/08 09:40:52;;;;;;;4.80;2.58;;;;;;;17.90;20.37;102197.53;10489159;28;20131;-84
2022/03/08 09:45:57;;;;;;;3.22;0.73;;;;;;;20.50;19.71;102181.16;10489965;28;20149;-84
2022/03/08 09:51:00;;;;;;;3.28;1.52;;;;;;;18.81;19.46;102188.41;10493129;28;20139;-84
2022/03/08 09:56:05;;;;;;;2.33;1.40;;;;;;;18.28;19.60;102185.94;10497837;28;20106;-84
2022/03/08 10:01:07;;;;;;;0.80;0.47;;;;;;;19.46;19.41;102175.19;10497631;28;20665;-85
2022/03/08 10:06:10;;;;;;;5.28;1.77;;;;;;;19.15;19.92;102172.28;10497370;28;20094;-86
2022/03/08 10:11:14;;;;;;;2.58;1.77;;;;;;;18.89;19.60;102172.81;10496575;28;20055;-84
2022/03/08 10:16:41;;;;;;;4.07;1.70;;;;;;;19.46;19.41;102162.13;10496762;28;20063;-84
2022/03/08 10:21:48;;;;;;;2.22;1.38;;;;;;;19.30;19.22;102164.59;10496657;28;20037;-85
2022/03/08 10:26:57;;;;;;;6.20;3.45;;;;;;;18.50;19.48;102159.28;10496154;28;20037;-83
2022/03/08 10:32:11;;;;;;;4.30;2.17;;;;;;;19.30;18.97;102141.06;10491301;28;20136;-83
2022/03/08 10:37:19;;;;;;;4.70;2.40;;;;;;;19.70;18.41;102140.53;10498237;28;20098;-82
2022/03/08 10:42:24;;;;;;;1.95;1.48;;;;;;;19.37;18.74;102134.16;10479568;28;20048;-83
2022/03/08 10:47:25;;;;;;;6.55;3.55;;;;;;;19.17;19.76;102137.47;10495868;28;20461;-84
2022/03/08 10:52:33;;;;;;;2.40;1.15;;;;;;;18.39;18.97;102133.06;10473348;28;20485;-83
2022/03/08 10:57:35;;;;;;;5.65;2.50;;;;;;;20.16;18.65;102128.66;10494697;28;20043;-82
2022/03/08 11:02:55;;;;;;;0.22;0.22;;;;;;;20.39;17.63;102126.13;10509044;28;20048;-83
2022/03/08 11:07:58;;;;;;;2.67;1.48;;;;;;;20.12;19.11;102127.75;10510483;28;20502;-84
2022/03/08 11:13:01;;;;;;;5.13;3.47;;;;;;;20.16;16.99;102112.97;10495709;28;20103;-83
2022/03/08 11:18:06;;;;;;;2.38;1.23;;;;;;;20.46;17.39;102117.44;10496367;28;20102;-83
2022/03/08 11:23:10;;;;;;;0.70;0.50;;;;;;;22.96;16.62;102110.22;10494255;28;20091;-84
2022/03/08 11:28:13;;;;;;;2.08;1.35;;;;;;;20.85;17.79;102094.91;10494328;28;20032;-83
2022/03/08 11:33:51;;;;;;;1.35;1.00;;;;;;;21.06;17.07;102087.94;10493442;28;20075;-83
2022/03/08 11:39:16;;;;;;;0.73;0.63;;;;;;;23.14;16.72;102068.03;10493743;28;20066;-82
2022/03/08 11:44:25;;;;;;;1.08;0.70;;;;;;;20.75;17.43;102072.19;10492998;28;20102;-83
2022/03/08 11:49:39;;;;;;;3.13;1.60;;;;;;;20.45;18.01;102068.56;10494846;28;20045;-83
2022/03/08 11:54:41;;;;;;;0.80;0.65;;;;;;;23.53;16.33;102053.69;10492733;28;20514;-81
2022/03/08 12:00:15;;;;;;;0.75;0.57;;;;;;;22.20;17.29;102058.06;10494254;28;20033;-84
2022/03/08 12:05:38;;;;;;;3.55;1.77;;;;;;;22.66;16.64;102054.38;10492494;28;20053;-83
2022/03/08 12:10:43;;;;;;;3.28;1.17;;;;;;;21.02;17.09;102055.63;10486711;28;20119;-84
2022/03/08 12:16:07;;;;;;;0.40;0.40;;;;;;;21.67;17.13;102050.38;10482910;28;20086;-81
2022/03/08 12:21:14;;;;;;;0.28;0.28;;;;;;;22.69;17.10;102043.84;10495421;28;20075;-81
2022/03/08 12:26:27;;;;;;;0.70;0.70;;;;;;;22.70;17.18;102035.06;10489995;28;20102;-81
2022/03/08 12:32:01;;;;;;;1.45;0.77;;;;;;;22.74;16.23;102021.06;10487341;28;20237;-82
2022/03/08 12:37:13;;;;;;;4.25;1.23;;;;;;;21.07;17.13;102013.72;10491054;28;20047;-83
2022/03/08 12:42:34;;;;;;;2.42;1.52;;;;;;;20.85;17.33;102003.25;10487432;28;20124;-84
2022/03/08 12:47:55;;;;;;;5.18;2.28;;;;;;;22.52;16.11;101993.19;10486888;28;20037;-83
2022/03/08 12:53:00;;;;;;;2.08;1.25;;;;;;;21.35;15.89;101988.38;10499380;28;20059;-83
2022/03/08 12:58:11;;;;;;;3.22;1.40;;;;;;;23.11;15.16;101973.44;10488840;28;20343;-82
2022/03/08 13:03:21;;;;;;;1.88;1.55;;;;;;;22.04;15.30;101981.16;10487429;28;20560;-81
2022/03/08 13:08:29;;;;;;;1.30;1.17;;;;;;;22.53;15.32;101979.16;10495872;28;20403;-82
2022/03/08 13:13:31;;;;;;;0.00;0.00;;;;;;;24.03;14.76;101968.06;10493700;28;20048;-82
2022/03/08 13:18:37;;;;;;;2.90;1.05;;;;;;;22.81;15.61;101974.56;10480708;28;20091;-79
2022/03/08 13:23:44;;;;;;;2.72;1.35;;;;;;;22.33;15.42;101982.75;10482529;28;20503;-81
2022/03/08 13:28:45;;;;;;;1.10;0.52;;;;;;;23.56;16.65;101972.13;10487036;28;20044;-80
2022/03/08 13:33:50;;;;;;;3.45;1.50;;;;;;;22.56;16.43;101968.66;10485162;28;20076;-82
2022/03/08 13:38:55;;;;;;;0.47;0.47;;;;;;;23.39;16.40;101962.66;10505029;28;20094;-81
2022/03/08 13:44:00;;;;;;;2.38;1.05;;;;;;;22.49;16.29;101958.19;10484712;28;20119;-80
2022/03/08 13:49:05;;;;;;;0.82;0.60;;;;;;;23.72;15.80;101939.47;10486261;28;20407;-80
2022/03/08 13:54:09;;;;;;;2.10;0.98;;;;;;;22.05;16.72;101948.81;10488903;28;20049;-80
2022/03/08 13:59:36;;;;;;;5.45;2.33;;;;;;;21.99;16.74;101946.22;10488305;28;20032;-81
2022/03/08 14:04:38;;;;;;;5.68;2.47;;;;;;;21.93;16.70;101946.25;10489406;28;20053;-80
2022/03/08 14:09:40;;;;;;;3.90;0.77;;;;;;;21.97;16.88;101937.47;10478807;28;20485;-80
2022/03/08 14:14:41;;;;;;;2.28;1.52;;;;;;;21.71;16.57;101935.84;10512145;28;20053;-81
2022/03/08 14:20:27;;;;;;;1.55;0.93;;;;;;;22.38;16.28;101928.47;10481443;28;20036;-75
2022/03/08 14:25:29;;;;;;;1.40;0.75;;;;;;;23.21;15.76;101936.56;10485611;28;20586;-77
2022/03/08 14:30:31;;;;;;;1.88;0.68;;;;;;;23.64;15.45;101935.22;10487129;28;20517;-77
2022/03/08 14:35:32;;;;;;;2.05;1.25;;;;;;;22.84;15.65;101926.38;10487443;28;20480;-78
2022/03/08 14:40:37;;;;;;;2.65;1.58;;;;;;;23.06;16.06;101922.66;10493849;28;20052;-78
2022/03/08 14:45:39;;;;;;;1.08;0.70;;;;;;;22.64;15.90;101927.44;10494234;28;20525;-78
2022/03/08 14:51:00;;;;;;;3.17;1.42;;;;;;;22.28;16.13;101922.41;10493718;28;20040;-78
2022/03/08 14:56:03;;;;;;;1.80;0.80;;;;;;;22.33;15.76;101930.25;10490306;28;20053;-78
2022/03/08 15:01:08;;;;;;;4.38;1.55;;;;;;;21.80;16.16;101929.69;10493326;28;20581;-76
2022/03/08 15:06:11;;;;;;;1.77;0.70;;;;;;;22.18;16.64;101934.72;10494329;28;20064;-78
2022/03/08 15:11:12;;;;;;;12.55;1.00;;;;;;;22.38;16.24;101928.47;10493278;28;20110;-78
2022/03/08 15:16:14;;;;;;;1.10;0.70;;;;;;;22.12;16.37;101937.41;10494422;28;20135;-76
2022/03/08 15:21:17;;;;;;;1.00;0.90;;;;;;;22.04;15.76;101920.81;10493941;28;20040;-77
2022/03/08 15:26:24;;;;;;;1.45;0.88;;;;;;;22.47;16.03;101917.94;10493809;28;20075;-78
2022/03/08 15:31:28;;;;;;;1.23;0.77;;;;;;;22.70;15.68;101914.25;10491658;28;20475;-77
2022/03/08 15:36:30;;;;;;;0.60;0.60;;;;;;;22.56;15.16;101905.63;10492750;28;20057;-77
2022/03/08 15:41:34;;;;;;;9.50;4.93;;;;;;;21.92;15.97;101918.28;10491728;28;20053;-77
2022/03/08 15:46:35;;;;;;;0.10;0.10;;;;;;;22.97;15.06;101909.63;10496821;28;20040;-76
2022/03/08 15:51:39;;;;;;;0.80;0.35;;;;;;;21.86;15.35;101914.78;10482198;28;20036;-78
2022/03/08 15:56:51;;;;;;;2.38;1.20;;;;;;;21.89;14.94;101907.78;10494085;28;20086;-78
2022/03/08 16:01:56;;;;;;;0.05;0.05;;;;;;;23.00;14.48;101899.06;10490016;28;20040;-76
2022/03/08 16:07:04;;;;;;;1.23;1.17;;;;;;;22.43;14.85;101891.72;10495160;28;20119;-77
2022/03/08 16:12:08;;;;;;;0.05;0.05;;;;;;;22.90;14.36;101895.69;10494794;28;20135;-76
2022/03/08 16:17:11;;;;;;;2.13;1.88;;;;;;;22.45;14.53;101889.94;10494052;28;20044;-79
2022/03/08 16:22:13;;;;;;;0.63;0.10;;;;;;;22.71;14.50;101888.88;10494827;28;20048;-77
2022/03/08 16:27:20;;;;;;;0.10;0.10;;;;;;;23.02;14.38;101886.81;10494104;28;20076;-76
2022/03/08 16:32:22;;;;;;;0.73;0.68;;;;;;;22.00;14.48;101890.25;10494556;28;20123;-78
2022/03/08 16:37:24;;;;;;;0.17;0.17;;;;;;;22.48;14.67;101888.16;10493191;28;20117;-77
2022/03/08 16:42:26;;;;;;;0.00;0.00;;;;;;;24.24;13.57;101884.38;10493338;28;20502;-77
2022/03/08 16:47:28;;;;;;;0.00;0.00;;;;;;;23.43;13.91;101890.72;10494829;28;20535;-77
2022/03/08 16:52:30;;;;;;;0.75;0.60;;;;;;;23.30;14.15;101886.53;10492788;28;20634;-77
2022/03/08 16:57:31;;;;;;;1.55;0.95;;;;;;;22.65;14.37;101884.53;10494541;28;20064;-76
2022/03/08 17:02:35;;;;;;;0.22;0.22;;;;;;;23.31;14.04;101885.63;10495426;28;20086;-77
2022/03/08 17:07:38;;;;;;;0.47;0.47;;;;;;;23.43;14.01;101884.63;10498150;28;20075;-77
2022/03/08 17:13:03;;;;;;;0.38;0.38;;;;;;;22.96;14.06;101879.00;10495478;28;20091;-76
2022/03/08 17:18:05;;;;;;;0.55;0.55;;;;;;;23.19;13.99;101884.00;10509049;28;20103;-77
2022/03/08 17:23:06;;;;;;;5.53;5.15;;;;;;;23.90;13.32;101890.13;10495743;28;20059;-77
2022/03/08 17:28:08;;;;;;;8.45;3.95;;;;;;;24.05;13.19;101897.84;10496152;28;20072;-78
2022/03/08 17:33:11;;;;;;;0.00;0.00;;;;;;;24.62;12.80;101895.19;10494499;28;20578;-77
2022/03/08 17:38:13;;;;;;;7.22;4.95;;;;;;;25.10;12.43;101902.25;10495003;28;20051;-79
2022/03/08 17:43:15;;;;;;;0.17;0.17;;;;;;;22.59;15.29;101910.84;10494412;28;20037;-77
2022/03/08 17:48:17;;;;;;;0.10;0.10;;;;;;;23.31;15.50;101918.97;10450289;28;20530;-76
2022/03/08 17:53:20;;;;;;;0.00;0.00;;;;;;;22.71;14.51;101923.88;10510761;28;20080;-77
2022/03/08 17:58:21;;;;;;;0.00;0.00;;;;;;;24.18;13.50;101929.25;10494793;28;20076;-76
2022/03/08 18:03:24;;;;;;;0.20;0.20;;;;;;;25.00;13.13;101934.06;10493236;28;20132;-76
2022/03/08 18:08:27;;;;;;;0.00;0.00;;;;;;;24.60;13.19;101941.75;10493076;28;20526;-76
2022/03/08 18:13:58;;;;;;;0.00;0.00;;;;;;;23.95;13.84;101951.50;10497229;28;20140;-77
2022/03/08 18:19:00;;;;;;;0.00;0.00;;;;;;;23.73;13.73;101957.00;10499155;28;20087;-76
2022/03/08 18:24:04;;;;;;;0.00;0.00;;;;;;;23.80;13.82;101951.66;10502943;28;20487;-76
2022/03/08 18:29:08;;;;;;;0.10;0.10;;;;;;;22.25;14.89;101968.81;10484437;28;20143;-76
2022/03/08 18:34:12;;;;;;;0.00;0.00;;;;;;;22.94;15.15;101963.06;10534786;28;20086;-77
2022/03/08 18:39:13;;;;;;;0.00;0.00;;;;;;;22.48;15.98;101966.94;10502941;28;20048;-76
2022/03/08 18:44:16;;;;;;;0.00;0.00;;;;;;;22.00;16.06;101974.22;10501162;28;20151;-76
2022/03/08 18:49:19;;;;;;;3.30;2.22;;;;;;;21.74;16.07;101977.81;10500008;28;20044;-77
2022/03/08 18:54:21;;;;;;;0.00;0.00;;;;;;;22.35;15.88;101978.38;10499812;28;20419;-77
2022/03/08 18:59:23;;;;;;;0.00;0.00;;;;;;;21.85;16.16;101980.38;10501222;28;20048;-77
2022/03/08 19:04:26;;;;;;;0.00;0.00;;;;;;;21.17;16.60;101986.66;10501323;28;20040;-77
2022/03/08 19:09:29;;;;;;;0.00;0.00;;;;;;;21.18;16.68;101987.50;10514905;28;20130;-76
2022/03/08 19:14:31;;;;;;;0.00;0.00;;;;;;;20.51;16.63;101989.19;10541403;28;20491;-76
2022/03/08 19:19:34;;;;;;;0.00;0.00;;;;;;;21.87;15.73;101989.13;10496886;28;20131;-77
2022/03/08 19:24:40;;;;;;;0.00;0.00;;;;;;;21.04;16.56;102000.59;10512656;28;20047;-77
2022/03/08 19:29:41;;;;;;;0.00;0.00;;;;;;;21.24;17.65;102004.13;10497435;28;20088;-76
2022/03/08 19:34:43;;;;;;;1.75;0.90;;;;;;;20.37;18.22;102004.84;10495000;28;20043;-76
2022/03/08 19:39:45;;;;;;;0.00;0.00;;;;;;;20.51;18.59;102011.03;10499610;28;20124;-76
2022/03/08 19:44:48;;;;;;;0.00;0.00;;;;;;;20.24;19.23;102017.91;10498551;28;20044;-77
2022/03/08 19:49:50;;;;;;;0.00;0.00;;;;;;;18.65;21.42;102030.69;10498739;28;20480;-76
2022/03/08 19:54:52;;;;;;;0.00;0.00;;;;;;;20.34;17.91;102020.56;10497198;28;20052;-77
2022/03/08 19:59:56;;;;;;;0.00;0.00;;;;;;;19.09;20.01;102025.94;10497294;28;20047;-76
2022/03/08 20:04:58;;;;;;;0.00;0.00;;;;;;;19.47;19.97;102018.38;10497738;28;20071;-76
2022/03/08 20:10:01;;;;;;;0.00;0.00;;;;;;;19.28;19.64;102032.19;10491456;28;20155;-76
2022/03/08 20:15:08;;;;;;;0.00;0.00;;;;;;;19.32;19.58;102023.50;10497722;28;20041;-76
2022/03/08 20:20:10;;;;;;;0.00;0.00;;;;;;;18.71;19.88;102036.00;10494080;28;20045;-76
2022/03/08 20:25:12;;;;;;;0.00;0.00;;;;;;;19.41;19.22;102023.56;10496273;28;20283;-77
2022/03/08 20:30:15;;;;;;;0.00;0.00;;;;;;;18.17;19.46;102039.75;10494078;28;20128;-76
2022/03/08 20:35:18;;;;;;;0.00;0.00;;;;;;;18.30;19.22;102036.41;10495874;28;20543;-76
2022/03/08 20:40:20;;;;;;;0.00;0.00;;;;;;;19.25;19.11;102033.00;10489908;28;20033;-75
2022/03/08 20:45:22;;;;;;;0.00;0.00;;;;;;;19.09;18.33;102041.63;10495130;28;20048;-76
2022/03/08 20:50:24;;;;;;;2.53;1.55;;;;;;;18.27;18.71;102057.28;10511265;28;20387;-76
2022/03/08 20:55:26;;;;;;;0.00;0.00;;;;;;;19.18;17.82;102041.66;10493758;28;20044;-76
2022/03/08 21:00:28;;;;;;;0.10;0.10;;;;;;;19.45;17.25;102045.38;10486455;28;20119;-77
2022/03/08 21:05:30;;;;;;;2.40;0.95;;;;;;;18.02;18.21;102054.34;10495832;28;20045;-76
2022/03/08 21:10:32;;;;;;;0.00;0.00;;;;;;;19.42;17.96;102050.56;10491046;28;20123;-76
2022/03/08 21:15:34;;;;;;;0.00;0.00;;;;;;;19.64;17.35;102051.59;10490597;28;20098;-76
2022/03/08 21:20:36;;;;;;;0.00;0.00;;;;;;;19.00;17.99;102060.66;10476485;28;20487;-77
2022/03/08 21:25:39;;;;;;;6.55;6.07;;;;;;;20.23;16.67;102052.78;10492857;28;20044;-76
2022/03/08 21:30:42;;;;;;;0.15;0.15;;;;;;;19.17;18.55;102066.06;10487937;28;20106;-76
2022/03/08 21:35:44;;;;;;;0.00;0.00;;;;;;;18.68;18.87;102067.28;10493593;28;20132;-76
2022/03/08 21:40:50;;;;;;;8.20;2.40;;;;;;;18.29;19.19;102071.19;10483887;28;20032;-76
2022/03/08 21:45:52;;;;;;;1.08;0.90;;;;;;;17.77;19.47;102074.81;10504885;28;20052;-77
2022/03/08 21:50:55;;;;;;;0.00;0.00;;;;;;;17.92;18.92;102081.09;10502479;28;20124;-76
2022/03/08 21:55:56;;;;;;;0.00;0.00;;;;;;;18.79;18.17;102087.44;10499396;28;20109;-75
2022/03/08 22:00:58;;;;;;;0.00;0.00;;;;;;;17.74;18.44;102084.31;10501850;28;20045;-76
2022/03/08 22:05:59;;;;;;;0.00;0.00;;;;;;;18.53;17.63;102088.88;10491835;28;20044;-75
2022/03/08 22:11:03;;;;;;;0.22;0.22;;;;;;;18.05;17.83;102084.78;10500904;28;20051;-76
2022/03/08 22:16:05;;;;;;;0.15;0.15;;;;;;;19.26;17.28;102086.16;10501376;28;20036;-77
2022/03/08 22:21:07;;;;;;;3.28;3.03;;;;;;;18.07;18.79;102094.38;10498159;28;20120;-76
2022/03/08 22:26:11;;;;;;;0.30;0.30;;;;;;;18.02;18.62;102084.75;10502873;28;20052;-77
2022/03/08 22:31:14;;;;;;;0.00;0.00;;;;;;;16.78;19.18;102095.66;10499420;28;20072;-78
2022/03/08 22:36:16;;;;;;;0.75;0.75;;;;;;;16.84;19.32;102097.53;10499789;28;20050;-76
2022/03/08 22:41:17;;;;;;;5.28;4.38;;;;;;;17.87;18.93;102101.00;10497824;28;20071;-77
2022/03/08 22:46:22;;;;;;;4.13;0.50;;;;;;;16.90;19.35;102113.25;10498449;28;20084;-77
2022/03/08 22:56:45;;;;;;;0.00;0.00;;;;;;;18.44;17.38;102113.97;10495441;28;20056;-77
2022/03/08 23:02:08;;;;;;;0.00;0.00;;;;;;;18.47;17.32;102116.63;10500645;28;20047;-77
2022/03/08 23:07:10;;;;;;;0.20;0.20;;;;;;;18.18;17.62;102118.00;10499015;28;20135;-77
2022/03/08 23:12:12;;;;;;;0.10;0.10;;;;;;;17.05;18.55;102113.56;10487185;28;20045;-77
2022/03/08 23:17:22;;;;;;;0.10;0.10;;;;;;;17.97;18.20;102112.47;10483011;28;20506;-77
2022/03/08 23:22:24;;;;;;;0.00;0.00;;;;;;;18.66;17.29;102117.72;10497615;28;20483;-76